createdAt,value
2018-11-06T00:00:49.771Z,19.50
2018-11-06T00:03:24.405Z,20.50
2018-11-06T00:05:53.746Z,21.40
2018-11-06T00:08:23.237Z,19.90
2018-11-06T00:10:52.141Z,20.00
2018-11-06T00:13:20.949Z,20.10
2018-11-06T00:15:49.754Z,19.67
2018-11-06T00:18:18.561Z,19.43
2018-11-06T00:20:47.469Z,19.20
2018-11-06T00:23:16.809Z,19.90
2018-11-06T00:25:45.688Z,22.60
2018-11-06T00:28:14.905Z,26.87
2018-11-06T00:30:43.892Z,22.37
2018-11-06T00:33:12.884Z,22.57
2018-11-06T00:35:41.928Z,20.47
2018-11-06T00:38:10.829Z,20.13
2018-11-06T00:40:39.870Z,20.07
2018-11-06T00:43:08.690Z,19.87
2018-11-06T00:45:38.059Z,19.77
2018-11-06T00:48:07.250Z,19.83
2018-11-06T00:50:36.546Z,21.17
2018-11-06T00:53:05.711Z,20.53
2018-11-06T00:55:34.626Z,20.43
2018-11-06T00:58:03.400Z,20.40
2018-11-06T01:00:32.480Z,20.30
2018-11-06T01:03:01.422Z,20.43
2018-11-06T01:05:30.526Z,19.47
2018-11-06T01:07:59.320Z,19.90
2018-11-06T01:10:28.522Z,19.50
2018-11-06T01:12:57.627Z,19.27
2018-11-06T01:15:26.547Z,20.60
2018-11-06T01:17:55.611Z,20.47
2018-11-06T01:20:24.449Z,19.90
2018-11-06T01:22:53.345Z,19.83
2018-11-06T01:25:22.142Z,20.70
2018-11-06T01:27:51.250Z,20.20
2018-11-06T01:30:21.042Z,20.40
2018-11-06T01:32:49.865Z,20.37
2018-11-06T01:35:18.729Z,21.00
2018-11-06T01:37:47.849Z,21.50
2018-11-06T01:40:18.196Z,20.70
2018-11-06T01:42:47.567Z,20.40
2018-11-06T01:45:17.229Z,20.23
2018-11-06T01:47:46.068Z,20.00
2018-11-06T01:50:16.475Z,22.37
2018-11-06T01:52:46.644Z,20.40
2018-11-06T01:55:15.478Z,20.83
2018-11-06T01:57:44.238Z,20.80
2018-11-06T02:00:15.804Z,19.63
2018-11-06T02:02:47.549Z,21.23
2018-11-06T02:05:17.631Z,20.80
2018-11-06T02:07:47.779Z,20.90
2018-11-06T02:10:17.033Z,20.37
2018-11-06T02:12:47.025Z,21.40
2018-11-06T02:15:15.991Z,20.23
2018-11-06T02:17:45.453Z,20.47
2018-11-06T02:20:15.406Z,21.50
2018-11-06T02:22:45.011Z,19.77
2018-11-06T02:25:14.142Z,20.70
2018-11-06T02:27:42.937Z,21.17
2018-11-06T02:30:13.981Z,20.50
2018-11-06T02:32:43.830Z,21.70
2018-11-06T02:35:12.762Z,22.50
2018-11-06T02:37:42.003Z,20.40
2018-11-06T02:40:14.999Z,21.70
2018-11-06T02:42:44.395Z,22.33
2018-11-06T02:45:14.177Z,22.03
2018-11-06T02:47:43.572Z,21.63
2018-11-06T02:50:13.569Z,22.60
2018-11-06T02:52:43.165Z,21.90
2018-11-06T02:55:12.361Z,21.90
2018-11-06T02:57:41.915Z,22.53
2018-11-06T03:00:13.764Z,21.40
2018-11-06T03:02:43.022Z,23.60
2018-11-06T03:05:12.127Z,22.40
2018-11-06T03:07:41.591Z,22.60
2018-11-06T03:10:11.781Z,22.27
2018-11-06T03:12:42.119Z,22.17
2018-11-06T03:15:12.229Z,22.53
2018-11-06T03:17:41.446Z,22.70
2018-11-06T03:20:11.222Z,22.87
2018-11-06T03:22:40.881Z,21.80
2018-11-06T03:25:10.053Z,22.13
2018-11-06T03:27:38.936Z,21.93
2018-11-06T03:30:10.195Z,20.87
2018-11-06T03:32:39.101Z,22.40
2018-11-06T03:35:08.896Z,22.47
2018-11-06T03:37:38.279Z,23.40
2018-11-06T03:40:07.823Z,22.63
2018-11-06T03:42:36.952Z,22.30
2018-11-06T03:45:06.481Z,20.70
2018-11-06T03:47:35.464Z,22.20
2018-11-06T03:50:04.303Z,21.97
2018-11-06T03:52:33.080Z,22.50
2018-11-06T03:55:01.863Z,21.30
2018-11-06T03:57:30.678Z,22.77
2018-11-06T03:59:59.895Z,23.10
2018-11-06T04:02:28.770Z,23.07
2018-11-06T04:04:57.718Z,21.87
2018-11-06T04:07:26.666Z,22.93
2018-11-06T04:09:55.551Z,21.87
2018-11-06T04:12:24.354Z,23.90
2018-11-06T04:14:53.149Z,23.27
2018-11-06T04:17:22.019Z,21.60
2018-11-06T04:19:51.114Z,23.43
2018-11-06T04:22:19.993Z,22.47
2018-11-06T04:24:48.878Z,23.97
2018-11-06T04:27:17.775Z,22.77
2018-11-06T04:29:46.627Z,22.87
2018-11-06T04:32:15.590Z,25.17
2018-11-06T04:34:44.467Z,23.23
2018-11-06T04:37:13.974Z,23.93
2018-11-06T04:39:42.838Z,23.80
2018-11-06T04:42:11.664Z,22.40
2018-11-06T04:44:40.558Z,22.87
2018-11-06T04:47:09.394Z,23.33
2018-11-06T04:49:38.915Z,24.87
2018-11-06T04:52:07.733Z,22.87
2018-11-06T04:54:36.582Z,23.67
2018-11-06T04:57:05.809Z,29.80
2018-11-06T04:59:34.642Z,34.07
2018-11-06T05:02:03.745Z,31.27
2018-11-06T05:04:32.606Z,28.20
2018-11-06T05:07:01.656Z,37.67
2018-11-06T05:09:37.262Z,30.30
2018-11-06T05:12:06.420Z,29.23
2018-11-06T05:14:35.535Z,28.70
2018-11-06T05:17:04.693Z,26.10
2018-11-06T05:19:33.807Z,27.73
2018-11-06T05:22:02.760Z,25.90
2018-11-06T05:24:31.605Z,27.63
2018-11-06T05:27:00.507Z,26.83
2018-11-06T05:29:29.288Z,26.97
2018-11-06T05:31:58.201Z,25.90
2018-11-06T05:34:27.438Z,26.43
2018-11-06T05:36:56.293Z,25.50
2018-11-06T05:39:25.166Z,26.47
2018-11-06T05:41:54.880Z,26.23
2018-11-06T05:44:23.974Z,24.63
2018-11-06T05:46:52.814Z,25.97
2018-11-06T05:49:21.749Z,25.33
2018-11-06T05:51:50.631Z,27.50
2018-11-06T05:54:19.551Z,25.60
2018-11-06T05:56:48.365Z,26.90
2018-11-06T05:59:17.283Z,26.37
2018-11-06T06:01:46.173Z,26.87
2018-11-06T06:04:15.094Z,27.23
2018-11-06T06:06:43.933Z,25.37
2018-11-06T06:09:12.785Z,27.03
2018-11-06T06:11:41.682Z,26.23
2018-11-06T06:14:11.142Z,29.87
2018-11-06T06:16:40.026Z,31.17
2018-11-06T06:19:08.887Z,29.77
2018-11-06T06:21:39.163Z,32.47
2018-11-06T06:24:08.029Z,30.23
2018-11-06T06:26:36.950Z,38.63
2018-11-06T06:29:06.271Z,32.77
2018-11-06T06:31:35.151Z,28.97
2018-11-06T06:34:04.319Z,31.80
2018-11-06T06:36:33.186Z,33.43
2018-11-06T06:39:02.160Z,35.87
2018-11-06T06:41:31.306Z,32.27
2018-11-06T06:44:00.235Z,33.93
2018-11-06T06:46:29.155Z,37.80
2018-11-06T06:48:58.239Z,29.40
2018-11-06T06:51:27.142Z,36.40
2018-11-06T06:53:56.003Z,31.80
2018-11-06T06:56:24.874Z,27.60
2018-11-06T06:58:55.240Z,28.10
2018-11-06T07:01:25.854Z,27.13
2018-11-06T07:03:56.416Z,26.17
2018-11-06T07:06:27.291Z,27.60
2018-11-06T07:08:57.397Z,29.67
2018-11-06T07:11:27.655Z,26.50
2018-11-06T07:13:57.857Z,27.00
2018-11-06T07:16:31.311Z,30.40
2018-11-06T07:19:01.612Z,30.53
2018-11-06T07:21:32.833Z,31.03
2018-11-06T07:24:03.596Z,32.20
2018-11-06T07:26:32.938Z,30.97
2018-11-06T07:29:03.950Z,29.60
2018-11-06T07:31:33.309Z,30.90
2018-11-06T07:34:04.540Z,30.20
2018-11-06T07:36:33.428Z,28.20
2018-11-06T07:39:02.446Z,30.47
2018-11-06T07:41:31.413Z,29.37
2018-11-06T07:44:00.268Z,32.23
2018-11-06T07:46:29.414Z,30.80
2018-11-06T07:48:58.191Z,30.70
2018-11-06T07:51:26.991Z,39.80
2018-11-06T07:53:56.048Z,36.27
2018-11-06T07:56:24.869Z,31.20
2018-11-06T07:58:53.848Z,30.50
2018-11-06T08:01:23.046Z,30.27
2018-11-06T08:03:51.846Z,32.90
2018-11-06T08:06:20.767Z,33.93
2018-11-06T08:08:49.588Z,30.67
2018-11-06T08:11:18.394Z,32.40
2018-11-06T08:13:47.477Z,31.20
2018-11-06T08:16:16.299Z,31.10
2018-11-06T08:18:45.383Z,31.77
2018-11-06T08:21:14.474Z,31.63
2018-11-06T08:23:43.348Z,31.17
2018-11-06T08:26:12.591Z,31.63
2018-11-06T08:28:41.599Z,30.33
2018-11-06T08:31:10.777Z,31.50
2018-11-06T08:33:39.486Z,32.50
2018-11-06T08:36:08.307Z,31.37
2018-11-06T08:38:37.175Z,32.17
2018-11-06T08:41:06.470Z,31.20
2018-11-06T08:43:35.323Z,31.53
2018-11-06T08:46:04.174Z,30.97
2018-11-06T08:48:33.013Z,31.93
2018-11-06T08:51:02.193Z,31.93
2018-11-06T08:53:31.096Z,33.00
2018-11-06T08:56:00.721Z,31.83
2018-11-06T08:58:29.568Z,31.73
2018-11-06T09:00:58.501Z,30.90
2018-11-06T09:03:27.349Z,35.20
2018-11-06T09:05:56.164Z,33.10
2018-11-06T09:08:25.035Z,33.13
2018-11-06T09:10:54.052Z,31.80
2018-11-06T09:13:22.993Z,31.73
2018-11-06T09:15:51.969Z,32.10
2018-11-06T09:18:20.985Z,33.37
2018-11-06T09:20:49.885Z,31.23
2018-11-06T09:23:18.786Z,32.87
2018-11-06T09:25:47.833Z,31.40
2018-11-06T09:28:16.703Z,30.40
2018-11-06T09:30:45.522Z,32.00
2018-11-06T09:33:14.592Z,30.50
2018-11-06T09:35:43.880Z,31.77
2018-11-06T09:38:12.718Z,31.33
2018-11-06T09:40:41.513Z,29.70
2018-11-06T09:43:10.302Z,29.70
2018-11-06T09:45:39.197Z,29.70
2018-11-06T09:48:08.112Z,31.10
2018-11-06T09:50:36.974Z,30.83
2018-11-06T09:53:06.710Z,31.60
2018-11-06T09:55:35.962Z,31.07
2018-11-06T09:58:06.206Z,30.57
2018-11-06T10:00:35.049Z,30.07
2018-11-06T10:03:03.912Z,31.10
2018-11-06T10:05:32.748Z,30.47
2018-11-06T10:08:01.962Z,29.80
2018-11-06T10:10:30.801Z,30.70
2018-11-06T10:12:59.863Z,31.57
2018-11-06T10:15:29.096Z,28.80
2018-11-06T10:17:58.013Z,31.67
2018-11-06T10:20:26.860Z,31.30
2018-11-06T10:22:55.776Z,28.57
2018-11-06T10:25:24.727Z,30.93
2018-11-06T10:27:53.588Z,30.10
2018-11-06T10:30:22.911Z,29.60
2018-11-06T10:32:51.769Z,32.33
2018-11-06T10:35:20.542Z,30.00
2018-11-06T10:37:49.389Z,29.87
2018-11-06T10:40:19.713Z,31.87
2018-11-06T10:42:48.889Z,30.73
2018-11-06T10:45:18.392Z,30.00
2018-11-06T10:47:47.548Z,30.97
2018-11-06T10:50:17.077Z,30.70
2018-11-06T10:52:47.035Z,29.20
2018-11-06T10:55:15.874Z,30.13
2018-11-06T10:57:44.635Z,29.90
2018-11-06T11:00:19.422Z,29.00
2018-11-06T11:02:53.460Z,29.17
2018-11-06T11:05:24.468Z,31.73
2018-11-06T11:07:53.621Z,29.30
2018-11-06T11:10:22.444Z,29.00
2018-11-06T11:12:51.585Z,28.20
2018-11-06T11:15:20.421Z,29.67
2018-11-06T11:17:49.252Z,27.47
2018-11-06T11:20:18.143Z,28.90
2018-11-06T11:22:46.894Z,28.40
2018-11-06T11:25:16.750Z,27.60
2018-11-06T11:27:46.552Z,30.03
2018-11-06T11:30:16.365Z,27.63
2018-11-06T11:32:46.897Z,28.03
2018-11-06T11:35:15.875Z,26.73
2018-11-06T11:37:44.908Z,27.20
2018-11-06T11:40:14.892Z,26.83
2018-11-06T11:42:44.534Z,27.77
2018-11-06T11:45:14.289Z,27.17
2018-11-06T11:47:43.440Z,28.47
2018-11-06T11:50:13.409Z,26.80
2018-11-06T11:52:49.005Z,26.67
2018-11-06T11:55:17.877Z,25.73
2018-11-06T11:57:46.816Z,24.37
2018-11-06T12:00:17.584Z,24.00
2018-11-06T12:02:46.743Z,25.03
2018-11-06T12:05:15.565Z,24.77
2018-11-06T12:07:44.495Z,26.30
2018-11-06T12:10:13.844Z,28.40
2018-11-06T12:12:42.812Z,27.43
2018-11-06T12:15:14.096Z,27.37
2018-11-06T12:17:43.866Z,27.17
2018-11-06T12:20:13.316Z,29.20
2018-11-06T12:22:42.672Z,28.43
2018-11-06T12:25:12.172Z,27.73
2018-11-06T12:27:40.835Z,28.50
2018-11-06T12:30:11.833Z,28.43
2018-11-06T12:32:41.600Z,26.40
2018-11-06T12:35:11.845Z,35.77
2018-11-06T12:37:41.267Z,27.30
2018-11-06T12:40:11.316Z,27.67
2018-11-06T12:42:40.665Z,26.37
2018-11-06T12:45:12.347Z,25.93
2018-11-06T12:47:41.737Z,26.73
2018-11-06T12:50:10.805Z,26.13
2018-11-06T12:52:40.009Z,25.60
2018-11-06T12:55:10.573Z,25.83
2018-11-06T12:57:39.558Z,25.40
2018-11-06T13:00:11.251Z,26.10
2018-11-06T13:02:40.419Z,25.10
2018-11-06T13:05:09.598Z,27.13
2018-11-06T13:07:39.875Z,24.10
2018-11-06T13:10:09.245Z,27.73
2018-11-06T13:12:38.179Z,25.30
2018-11-06T13:15:07.781Z,25.33
2018-11-06T13:17:37.381Z,25.60
2018-11-06T13:20:08.238Z,25.77
2018-11-06T13:22:37.489Z,25.33
2018-11-06T13:25:07.240Z,26.70
2018-11-06T13:27:36.930Z,25.37
2018-11-06T13:30:07.507Z,25.50
2018-11-06T13:32:36.324Z,24.83
2018-11-06T13:35:05.875Z,25.20
2018-11-06T13:37:35.210Z,25.03
2018-11-06T13:40:04.968Z,24.43
2018-11-06T13:42:34.016Z,25.20
2018-11-06T13:45:03.373Z,25.03
2018-11-06T13:47:32.013Z,24.20
2018-11-06T13:50:00.938Z,26.63
2018-11-06T13:52:29.815Z,24.60
2018-11-06T13:54:58.680Z,23.77
2018-11-06T13:57:27.493Z,26.70
2018-11-06T13:59:56.273Z,26.03
2018-11-06T14:02:25.263Z,25.20
2018-11-06T14:04:54.111Z,25.67
2018-11-06T14:07:23.018Z,25.20
2018-11-06T14:09:52.174Z,24.60
2018-11-06T14:12:21.284Z,25.80
2018-11-06T14:14:50.136Z,25.20
2018-11-06T14:17:19.021Z,26.50
2018-11-06T14:19:47.896Z,26.77
2018-11-06T14:22:17.127Z,25.03
2018-11-06T14:24:45.912Z,25.93
2018-11-06T14:27:14.937Z,27.07
2018-11-06T14:29:43.768Z,26.40
2018-11-06T14:32:12.618Z,26.17
2018-11-06T14:34:41.760Z,25.70
2018-11-06T14:37:10.776Z,26.60
2018-11-06T14:39:39.693Z,26.37
2018-11-06T14:42:08.607Z,27.07
2018-11-06T14:44:37.778Z,26.60
2018-11-06T14:47:07.073Z,27.23
2018-11-06T14:49:36.181Z,26.07
2018-11-06T14:52:05.485Z,28.33
2018-11-06T14:54:34.883Z,26.23
2018-11-06T14:57:03.839Z,25.90
2018-11-06T14:59:32.872Z,27.00
2018-11-06T15:02:02.189Z,25.80
2018-11-06T15:04:31.252Z,27.40
2018-11-06T15:07:00.154Z,28.00
2018-11-06T15:09:29.125Z,27.37
2018-11-06T15:11:59.030Z,26.43
2018-11-06T15:14:27.995Z,27.07
2018-11-06T15:16:56.901Z,27.10
2018-11-06T15:19:25.939Z,29.00
2018-11-06T15:21:55.603Z,26.63
2018-11-06T15:24:24.856Z,26.90
2018-11-06T15:26:53.852Z,28.17
2018-11-06T15:29:22.871Z,27.83
2018-11-06T15:31:51.985Z,28.73
2018-11-06T15:34:20.912Z,27.90
2018-11-06T15:36:50.945Z,27.20
2018-11-06T15:39:19.859Z,26.60
2018-11-06T15:41:48.852Z,28.33
2018-11-06T15:44:17.501Z,27.70
2018-11-06T15:46:46.453Z,27.37
2018-11-06T15:49:15.414Z,28.43
2018-11-06T15:51:44.226Z,28.77
2018-11-06T15:54:13.244Z,27.43
2018-11-06T15:56:42.299Z,33.43
2018-11-06T15:59:11.090Z,36.97
2018-11-06T16:01:40.053Z,36.80
2018-11-06T16:04:09.060Z,31.40
2018-11-06T16:06:38.001Z,29.10
2018-11-06T16:09:07.754Z,30.07
2018-11-06T16:11:36.703Z,28.70
2018-11-06T16:14:05.627Z,29.17
2018-11-06T16:16:34.576Z,27.20
2018-11-06T16:19:03.758Z,28.10
2018-11-06T16:21:32.635Z,27.33
2018-11-06T16:24:01.618Z,29.57
2018-11-06T16:26:30.595Z,31.00
2018-11-06T16:28:59.626Z,29.40
2018-11-06T16:31:28.423Z,28.60
2018-11-06T16:33:57.628Z,28.93
2018-11-06T16:36:26.681Z,28.43
2018-11-06T16:38:55.973Z,29.73
2018-11-06T16:41:24.948Z,28.97
2018-11-06T16:43:53.899Z,29.70
2018-11-06T16:46:22.973Z,31.00
2018-11-06T16:48:52.038Z,30.00
2018-11-06T16:51:20.877Z,29.40
2018-11-06T16:53:49.867Z,29.97
2018-11-06T16:56:18.795Z,29.93
2018-11-06T16:58:47.892Z,28.27
2018-11-06T17:01:16.895Z,30.20
2018-11-06T17:03:45.781Z,28.47
2018-11-06T17:06:19.849Z,29.67
2018-11-06T17:08:48.834Z,29.83
2018-11-06T17:11:17.953Z,31.83
2018-11-06T17:13:46.793Z,30.40
2018-11-06T17:16:15.653Z,31.10
2018-11-06T17:18:44.540Z,29.50
2018-11-06T17:21:13.608Z,30.40
2018-11-06T17:23:42.891Z,30.00
2018-11-06T17:26:11.756Z,30.83
2018-11-06T17:28:40.640Z,30.33
2018-11-06T17:31:09.719Z,27.07
2018-11-06T17:33:38.736Z,30.50
2018-11-06T17:36:08.065Z,29.00
2018-11-06T17:38:36.940Z,30.77
2018-11-06T17:41:06.811Z,29.87
2018-11-06T17:43:35.830Z,30.77
2018-11-06T17:46:04.987Z,29.93
2018-11-06T17:48:33.870Z,30.20
2018-11-06T17:51:02.708Z,31.30
2018-11-06T17:53:31.677Z,30.43
2018-11-06T17:56:00.536Z,30.70
2018-11-06T17:58:29.788Z,28.67
2018-11-06T18:00:58.753Z,29.47
2018-11-06T18:03:27.805Z,30.17
2018-11-06T18:05:56.947Z,30.30
2018-11-06T18:08:25.871Z,29.10
2018-11-06T18:10:54.860Z,29.60
2018-11-06T18:13:24.744Z,28.97
2018-11-06T18:15:53.699Z,32.37
2018-11-06T18:18:22.747Z,30.00
2018-11-06T18:20:51.678Z,31.87
2018-11-06T18:23:20.665Z,30.80
2018-11-06T18:25:49.834Z,30.50
2018-11-06T18:28:18.599Z,31.00
2018-11-06T18:30:47.633Z,30.23
2018-11-06T18:33:16.467Z,29.57
2018-11-06T18:35:45.494Z,30.17
2018-11-06T18:38:14.407Z,30.60
2018-11-06T18:40:43.441Z,30.73
2018-11-06T18:43:13.154Z,30.90
2018-11-06T18:45:42.106Z,30.47
2018-11-06T18:48:11.222Z,29.37
2018-11-06T18:50:40.185Z,31.47
2018-11-06T18:53:09.192Z,30.03
2018-11-06T18:55:38.561Z,30.70
2018-11-06T18:58:07.562Z,28.57
2018-11-06T19:00:36.452Z,27.70
2018-11-06T19:03:05.881Z,31.27
2018-11-06T19:05:34.743Z,30.93
2018-11-06T19:08:03.771Z,29.57
2018-11-06T19:10:33.632Z,31.23
2018-11-06T19:13:02.457Z,30.00
2018-11-06T19:15:31.521Z,30.33
2018-11-06T19:18:00.417Z,29.43
2018-11-06T19:20:29.355Z,29.87
2018-11-06T19:22:58.246Z,30.37
2018-11-06T19:25:27.509Z,30.40
2018-11-06T19:27:56.629Z,30.93
2018-11-06T19:30:25.610Z,32.23
2018-11-06T19:32:54.641Z,30.47
2018-11-06T19:35:23.526Z,30.80
2018-11-06T19:37:52.463Z,29.17
2018-11-06T19:40:21.340Z,30.40
2018-11-06T19:42:50.298Z,31.63
2018-11-06T19:45:19.205Z,31.20
2018-11-06T19:47:48.115Z,31.30
2018-11-06T19:50:18.467Z,29.30
2018-11-06T19:52:47.836Z,29.50
2018-11-06T19:55:17.722Z,30.90
2018-11-06T19:57:46.813Z,30.40
2018-11-06T20:00:20.182Z,31.83
2018-11-06T20:02:50.676Z,29.67
2018-11-06T20:05:20.058Z,31.07
2018-11-06T20:07:50.196Z,32.03
2018-11-06T20:10:20.426Z,31.40
2018-11-06T20:12:50.535Z,32.87
2018-11-06T20:15:19.810Z,33.07
2018-11-06T20:17:49.025Z,32.33
2018-11-06T20:20:20.604Z,32.47
2018-11-06T20:22:49.519Z,35.47
2018-11-06T20:25:18.510Z,34.93
2018-11-06T20:27:47.646Z,33.40
2018-11-06T20:30:19.346Z,34.20
2018-11-06T20:32:49.046Z,32.17
2018-11-06T20:35:18.301Z,31.87
2018-11-06T20:37:47.745Z,31.87
2018-11-06T20:40:20.586Z,31.30
2018-11-06T20:42:49.663Z,31.70
2018-11-06T20:45:19.432Z,31.43
2018-11-06T20:47:48.444Z,32.40
2018-11-06T20:50:20.168Z,32.53
2018-11-06T20:52:49.663Z,33.10
2018-11-06T20:55:19.353Z,32.43
2018-11-06T20:57:48.263Z,33.00
2018-11-06T21:00:26.072Z,31.80
2018-11-06T21:02:55.948Z,34.33
2018-11-06T21:05:24.981Z,33.60
2018-11-06T21:07:54.741Z,32.30
2018-11-06T21:10:24.991Z,31.87
2018-11-06T21:12:53.826Z,33.17
2018-11-06T21:15:22.912Z,32.20
2018-11-06T21:17:52.303Z,32.43
2018-11-06T21:20:21.292Z,32.40
2018-11-06T21:22:50.430Z,33.90
2018-11-06T21:25:19.357Z,34.37
2018-11-06T21:27:48.442Z,32.90
2018-11-06T21:30:18.797Z,33.80
2018-11-06T21:32:48.851Z,33.10
2018-11-06T21:35:18.462Z,32.20
2018-11-06T21:37:47.380Z,32.90
2018-11-06T21:40:18.317Z,34.07
2018-11-06T21:42:48.078Z,36.97
2018-11-06T21:45:17.833Z,33.20
2018-11-06T21:47:47.428Z,46.47
2018-11-06T21:50:17.163Z,36.00
2018-11-06T21:52:46.043Z,33.07
2018-11-06T21:55:16.160Z,33.50
2018-11-06T21:57:45.025Z,32.07
2018-11-06T22:00:16.405Z,32.73
2018-11-06T22:02:45.558Z,32.73
2018-11-06T22:05:15.582Z,32.67
2018-11-06T22:07:44.669Z,30.37
2018-11-06T22:10:19.086Z,33.37
2018-11-06T22:12:48.195Z,32.27
2018-11-06T22:15:18.152Z,33.17
2018-11-06T22:17:47.722Z,31.70
2018-11-06T22:20:17.826Z,34.23
2018-11-06T22:22:47.333Z,33.50
2018-11-06T22:25:16.337Z,32.03
2018-11-06T22:27:45.574Z,33.63
2018-11-06T22:30:15.460Z,31.57
2018-11-06T22:32:45.421Z,33.73
2018-11-06T22:35:15.384Z,32.90
2018-11-06T22:37:44.242Z,32.60
2018-11-06T22:40:14.435Z,32.50
2018-11-06T22:42:43.638Z,32.20
2018-11-06T22:45:13.832Z,32.43
2018-11-06T22:47:43.125Z,30.37
2018-11-06T22:50:14.647Z,31.20
2018-11-06T22:52:43.949Z,32.80
2018-11-06T22:55:13.118Z,31.30
2018-11-06T22:57:42.144Z,31.97
2018-11-06T23:00:14.284Z,32.63
2018-11-06T23:02:44.431Z,30.40
2018-11-06T23:05:13.736Z,32.17
2018-11-06T23:07:47.603Z,30.20
2018-11-06T23:10:16.419Z,29.90
2018-11-06T23:12:45.304Z,31.73
2018-11-06T23:15:14.235Z,32.03
2018-11-06T23:17:43.090Z,29.60
2018-11-06T23:20:11.882Z,30.67
2018-11-06T23:22:40.832Z,31.17
2018-11-06T23:25:09.764Z,29.00
2018-11-06T23:27:38.557Z,30.97
2018-11-06T23:30:10.227Z,29.63
2018-11-06T23:32:39.110Z,33.93
2018-11-06T23:35:08.004Z,34.87
2018-11-06T23:37:36.893Z,33.13
2018-11-06T23:40:05.938Z,32.40
2018-11-06T23:42:35.118Z,31.67
2018-11-06T23:45:04.530Z,31.03
2018-11-06T23:47:33.898Z,29.47
2018-11-06T23:50:02.830Z,30.27
2018-11-06T23:52:32.087Z,32.00
2018-11-06T23:55:00.983Z,32.07
2018-11-06T23:57:30.696Z,32.03
